METAR Data
IDs: Format: Raw Decoded Include TAF

Data at: 0541 UTC 24 Sep 2018

KBDN 240535Z AUTO 00000KT 10SM CLR 05/M01 A3014 RMK AO2
KBDN 240515Z AUTO 00000KT 10SM CLR 05/M01 A3014 RMK AO2
KBDN 240455Z AUTO 00000KT 10SM CLR 06/M01 A3014 RMK AO2
KBDN 240435Z AUTO 00000KT 10SM CLR 07/M01 A3013 RMK AO2
KBDN 240415Z AUTO 00000KT 10SM CLR 08/M01 A3013 RMK AO2
KBDN 240355Z AUTO 00000KT 10SM CLR 09/M01 A3012 RMK AO2
KBDN 240335Z AUTO 00000KT 10SM CLR 09/M00 A3012 RMK AO2
KBDN 240315Z AUTO 00000KT 10SM CLR 10/M00 A3011 RMK AO2
KBDN 240255Z AUTO 01003KT 10SM CLR 11/00 A3011 RMK AO2
KBDN 240235Z AUTO 36005KT 10SM CLR 11/M00 A3011 RMK AO2
KBDN 240215Z AUTO 35007KT 10SM CLR 13/M00 A3010 RMK AO2
KBDN 240155Z AUTO 34007KT 10SM CLR 14/M01 A3009 RMK AO2
KBDN 240135Z AUTO 35006KT 10SM CLR 16/M01 A3009 RMK AO2
KBDN 240115Z AUTO 33005KT 10SM CLR 17/M01 A3008 RMK AO2
KBDN 240055Z AUTO 32010KT 10SM CLR 17/M01 A3008 RMK AO2
KBDN 240035Z AUTO 30009KT 10SM CLR 18/M03 A3008 RMK AO2
KBDN 240015Z AUTO 31010KT 10SM CLR 18/M04 A3007 RMK AO2
KBDN 232355Z AUTO 33007G13KT 10SM CLR 18/M02 A3008 RMK AO2
KBDN 232335Z AUTO 34008G15KT CLR 19/M02 A3008 RMK AO2
KBDN 232315Z AUTO VRB06G12KT 10SM CLR 18/M03 A3008 RMK AO2
KBDN 232255Z AUTO VRB06G12KT 10SM CLR 18/M03 A3008 RMK AO2
KBDN 232235Z AUTO VRB05KT 10SM CLR 18/M03 A3008 RMK AO2
KBDN 232215Z AUTO VRB06KT 10SM CLR 18/M03 A3009 RMK AO2
KBDN 232155Z AUTO VRB05KT 10SM CLR 18/M04 A3009 RMK AO2
KBDN 232135Z AUTO 35008KT 10SM CLR 17/M04 A3010 RMK AO2
KBDN 232115Z AUTO 35006KT 10SM CLR 18/M03 A3011 RMK AO2
KBDN 232055Z AUTO VRB06G12KT 10SM CLR 17/M04 A3011 RMK AO2
KBDN 232035Z AUTO 35008G13KT 10SM FEW041 16/M05 A3011 RMK AO2
KBDN 232015Z AUTO VRB03G11KT 10SM FEW041 16/M05 A3012 RMK AO2
KBDN 231955Z AUTO 30007KT 10SM CLR 15/M04 A3012 RMK AO2
KBDN 231935Z AUTO 30009KT 10SM CLR 15/M01 A3013 RMK AO2
KBDN 231915Z AUTO 00000KT 10SM CLR 14/M01 A3013 RMK AO2
KBDN 231855Z AUTO 00000KT 10SM CLR 14/M00 A3014 RMK AO2
KBDN 231835Z AUTO 35005KT 10SM CLR 14/00 A3014 RMK AO2
KBDN 231815Z AUTO 00000G13KT 10SM CLR 13/00 A3014 RMK AO2
KBDN 231755Z AUTO VRB03KT 10SM FEW035 12/01 A3014 RMK AO2
KBDN 231735Z AUTO 00000KT 10SM CLR 12/02 A3015 RMK AO2
KBDN 231715Z AUTO VRB04KT 10SM SCT029 11/02 A3015 RMK AO2
KBDN 231655Z AUTO 00000KT 10SM SCT027 11/02 A3015 RMK AO2
KBDN 231635Z AUTO 00000KT 10SM FEW026 10/02 A3015 RMK AO2
KBDN 231615Z AUTO 00000KT 10SM CLR 10/02 A3015 RMK AO2
KBDN 231555Z AUTO 20003KT 10SM CLR 09/03 A3014 RMK AO2
KBDN 231535Z AUTO 00000KT 10SM CLR 08/03 A3014 RMK AO2
KBDN 231515Z AUTO 00000KT 10SM CLR 07/03 A3014 RMK AO2
KBDN 231455Z AUTO 25004KT 10SM SCT026 06/03 A3013 RMK AO2
KBDN 231435Z AUTO 22004KT 10SM BKN026 06/02 A3013 RMK AO2
KBDN 231415Z AUTO 22008KT 10SM FEW022 04/02 A3012 RMK AO2
KBDN 231355Z AUTO 16005KT 10SM FEW022 FEW035 04/02 A3012 RMK AO2
KBDN 231335Z AUTO 00000KT 10SM FEW022 SCT039 04/02 A3011 RMK AO2
KBDN 231315Z AUTO 00000KT 10SM FEW041 03/01 A3011 RMK AO2
KBDN 231255Z AUTO 00000KT 10SM CLR 04/02 A3011 RMK AO2
KBDN 231235Z AUTO 20003KT 10SM FEW032 04/02 A3010 RMK AO2
KBDN 231215Z AUTO 22005KT 10SM SCT032 05/02 A3010 RMK AO2
KBDN 231155Z AUTO 00000KT 10SM FEW037 04/02 A3010 RMK AO2
KBDN 231135Z AUTO 00000KT 10SM SCT037 04/02 A3010 RMK AO2
KBDN 231115Z AUTO 00000KT 10SM SCT037 SCT042 05/02 A3010 RMK AO2
KBDN 231055Z AUTO 00000KT 10SM OVC034 05/02 A3009 RMK AO2
KBDN 231035Z AUTO 00000KT 10SM BKN034 04/02 A3009 RMK AO2
KBDN 231015Z AUTO 00000KT 10SM CLR 04/02 A3009 RMK AO2
KBDN 230955Z AUTO 00000KT 10SM FEW050 04/02 A3008 RMK AO2
KBDN 230935Z AUTO 00000KT 10SM FEW050 04/02 A3009 RMK AO2
KBDN 230915Z AUTO 00000KT 10SM CLR 04/02 A3008 RMK AO2
KBDN 230855Z AUTO 20004KT 10SM CLR 05/03 A3008 RMK AO2
KBDN 230835Z AUTO 00000KT 10SM CLR 05/02 A3008 RMK AO2
KBDN 230815Z AUTO 18003KT 10SM FEW045 05/02 A3008 RMK AO2
KBDN 230755Z AUTO 00000KT 10SM CLR 05/02 A3008 RMK AO2
KBDN 230735Z AUTO 00000KT 10SM FEW035 05/02 A3007 RMK AO2
KBDN 230715Z AUTO 00000KT 10SM CLR 06/03 A3008 RMK AO2
KBDN 230655Z AUTO 00000KT 10SM FEW046 07/03 A3007 RMK AO2
KBDN 230635Z AUTO 00000KT 10SM BKN046 08/04 A3007 RMK AO2
KBDN 230615Z AUTO 00000KT 10SM OVC046 09/04 A3007 RMK AO2
KBDN 230555Z AUTO 00000KT 10SM OVC045 10/04 A3007 RMK AO2
KBDN 230535Z AUTO 00000KT 10SM BKN045 09/03 A3007 RMK AO2
KBDN 230515Z AUTO 00000KT 10SM CLR 08/03 A3007 RMK AO2
KBDN 230455Z AUTO 00000KT 10SM CLR 09/03 A3006 RMK AO2
KBDN 230435Z AUTO 00000KT 10SM CLR 10/04 A3006 RMK AO2
KBDN 230415Z AUTO 34004KT 10SM CLR 11/04 A3006 RMK AO2
KBDN 230355Z AUTO 02004KT 10SM CLR 11/04 A3005 RMK AO2
KBDN 230335Z AUTO 00000KT 10SM CLR 12/04 A3005 RMK AO2
KBDN 230315Z AUTO 34003KT 10SM CLR 12/04 A3005 RMK AO2
KBDN 230255Z AUTO 36006KT 10SM CLR 13/04 A3004 RMK AO2
KBDN 230235Z AUTO 35005KT 10SM CLR 13/04 A3004 RMK AO2
KBDN 230215Z AUTO 32007KT SCT047 14/04 A3004 RMK AO2
KBDN 230155Z AUTO 35006KT 10SM BKN048 15/04 A3004 RMK AO2
KBDN 230135Z AUTO 35005KT 10SM FEW050 SCT065 16/04 A3004 RMK AO2
KBDN 230115Z AUTO 32007KT 10SM SCT055 16/04 A3004 RMK AO2
KBDN 230055Z AUTO 36007KT 10SM FEW055 16/04 A3004 RMK AO2
KBDN 230035Z AUTO 34009KT 10SM FEW055 17/04 A3003 RMK AO2
KBDN 230015Z AUTO 33011KT 10SM FEW055 19/04 A3003 RMK AO2
KBDN 222355Z AUTO 26008KT 10SM CLR 18/02 A3002 RMK AO2
KBDN 222335Z AUTO 23008KT 10SM FEW055 19/02 A3002 RMK AO2
KBDN 222315Z AUTO 27006KT 10SM CLR 18/02 A3003 RMK AO2
KBDN 222255Z AUTO 26007KT 10SM CLR 19/02 A3003 RMK AO2
KBDN 222235Z AUTO 28007KT 10SM CLR 18/01 A3002 RMK AO2
KBDN 222215Z AUTO 29009KT 10SM CLR 19/01 A3001 RMK AO2
KBDN 222155Z AUTO 27008KT 10SM FEW110 19/01 A3002 RMK AO2
KBDN 222135Z AUTO 00000KT 10SM CLR 19/06 A3002 RMK AO2
KBDN 222115Z AUTO 32008G13KT 10SM FEW047 19/06 A3002 RMK AO2
KBDN 222055Z AUTO 34011KT 10SM FEW047 19/06 A3001 RMK AO2
KBDN 222035Z AUTO VRB06G16KT 240V300 10SM CLR 20/03 A3002 RMK AO2
KBDN 222015Z AUTO 24010G16KT 10SM CLR 20/04 A3001 RMK AO2
KBDN 221955Z AUTO 21013KT 10SM FEW045 FEW050 20/05 A3001 RMK AO2
KBDN 221935Z AUTO 21009G18KT 10SM BKN042 BKN048 19/06 A3002 RMK AO2
KBDN 221915Z AUTO 20012G17KT 10SM SCT041 BKN047 BKN055 19/07 A3003 RMK AO2
KBDN 221855Z AUTO 20008KT 10SM SCT042 BKN048 BKN055 17/06 A3004 RMK AO2
KBDN 221835Z AUTO 20013KT 10SM FEW043 FEW049 SCT060 17/06 A3004 RMK AO2
KBDN 221815Z AUTO 20011G17KT 10SM FEW060 FEW075 17/06 A3004 RMK AO2
KBDN 221755Z AUTO 21012KT 10SM FEW060 SCT075 16/07 A3004 RMK AO2